ADDS METAR Data INFO
IDs: Format: Raw Decoded Include TAF

Data at: 0839 UTC 21 Oct 2017

KHVN 210753Z AUTO 00000KT 10SM CLR 10/06 A3024 RMK AO2 SLP239 T01000056
KHVN 210653Z AUTO 00000KT 10SM CLR 09/05 A3023 RMK AO2 SLP236 T00890050
KHVN 210553Z AUTO 00000KT 10SM CLR 09/05 A3023 RMK AO2 SLP236 T00890050 10178 20078 51013
KHVN 210453Z AUTO 36004KT 10SM CLR 08/04 A3022 RMK AO2 SLP233 T00780044 402280078
KHVN 210353Z AUTO 00000KT 10SM CLR 09/06 A3021 RMK AO2 SLP229 T00940056
KHVN 210253Z AUTO 00000KT 10SM CLR 10/04 A3019 RMK AO2 SLP224 T01000039 53018
KHVN 210153Z 00000KT 10SM CLR 13/05 A3017 RMK AO2 SLP216 T01280050
KHVN 210053Z 31005KT 10SM CLR 18/05 A3015 RMK AO2 SLP208 T01780050
KHVN 202353Z 30003KT 10SM CLR 18/05 A3014 RMK AO2 SLP206 T01780050 10228 20178 51021
KHVN 202253Z 31005KT 10SM FEW250 19/03 A3012 RMK AO2 SLP200 T01940033
KHVN 202153Z 32009KT 10SM CLR 21/03 A3009 RMK AO2 SLP190 T02060028
KHVN 202053Z 32010G18KT 10SM CLR 22/02 A3008 RMK AO2 SLP184 T02220022 53003
KHVN 201953Z 32011G19KT 10SM CLR 23/01 A3007 RMK AO2 SLP180 T02280011
KHVN 201853Z 30008KT 10SM CLR 22/02 A3006 RMK AO2 SLP178 T02220022
KHVN 201753Z 30007KT 10SM CLR 22/01 A3007 RMK AO2 SLP181 T02170011 10217 20133 58021
KHVN 201653Z 33009KT 10SM CLR 21/02 A3010 RMK AO2 SLP191 T02110017
KHVN 201553Z 30007G15KT 10SM CLR 19/03 A3012 RMK AO2 SLP198 T01940033
KHVN 201453Z 30008G16KT 10SM CLR 19/02 A3013 RMK AO2 SLP202 T01890022 50006
KHVN 201353Z 31011KT 10SM CLR 18/05 A3014 RMK AO2 SLP206 T01780050
KHVN 201253Z 32008KT 10SM CLR 16/08 A3013 RMK AO2 SLP202 T01610078
KHVN 201153Z 33008KT 10SM SCT250 14/08 A3011 RMK AO2 SLP195 T01390083 10161 20083 53016
KHVN 201053Z 32010KT 10SM CLR 13/08 A3008 RMK AO2 SLP187 T01330078
KHVN 200953Z 33004KT 10SM CLR 13/09 A3008 RMK AO2 SLP184 T01280094
KHVN 200853Z AUTO 01004KT 10SM CLR 09/07 A3006 RMK AO2 SLP179 T00890067 53003
KHVN 200753Z AUTO 00000KT 10SM CLR 11/07 A3005 RMK AO2 SLP175 T01060072
KHVN 200653Z AUTO 00000KT 10SM CLR 16/09 A3004 RMK AO2 SLP173 T01560089
KHVN 200553Z AUTO VRB04KT 10SM CLR 16/09 A3005 RMK AO2 SLP176 T01610089 10183 20156 55004
KHVN 200453Z AUTO 00000KT 10SM CLR 17/09 A3005 RMK AO2 SLP176 T01720094 402110056
KHVN 200353Z AUTO VRB05KT 10SM CLR 17/11 A3006 RMK AO2 SLP178 T01720111
KHVN 200253Z AUTO VRB04KT 10SM CLR 18/12 A3006 RMK AO2 SLP180 T01780122 56003
KHVN 200153Z 23009KT 10SM CLR 18/13 A3007 RMK AO2 SLP181 T01830128
KHVN 200053Z 22007G16KT 10SM CLR 18/13 A3006 RMK AO2 SLP179 T01780133
KHVN 192353Z 21010KT 10SM CLR 18/13 A3007 RMK AO2 SLP183 T01780128 10211 20172 56004
KHVN 192253Z 21009KT 10SM CLR 18/11 A3008 RMK AO2 SLP184 T01780111
KHVN 192153Z 20009KT 10SM CLR 18/11 A3008 RMK AO2 SLP184 T01780106
KHVN 192053Z 21009G16KT 180V240 10SM CLR 19/09 A3009 RMK AO2 SLP187 T01940094 56024